Nearby METAR Reports

 

EGHI - Southampton Wx C, Hampshire, United Kingdom
Distance from station: SE 2mi, 3km
Updated: 14/11/2018 15:50
Few Clouds
Few Clouds
 Wind from SE
Wind: SE 5 mph , 7 km/h
Temperature: 12°C
Dew Point: 8°C
Humidity: 77%
Barometer: 1021 hPa
Clouds: Few Clouds
Visibility: 6 miles , 10 km
Cloud details: Few Clouds 762 m
2018/11/14 15:50 EGHI 141550Z 14004KT 110V180 9999 FEW025 12/08 Q1021
EGVP - Middle Wallop, Hampshire, United Kingdom
Distance from station: NW 14mi, 23km
Updated: 14/11/2018 15:50
Few Clouds
Few Clouds
 Wind from S
Wind: S 9 mph , 15 km/h
Temperature: 12°C
Dew Point: 9°C
Humidity: 82%
Barometer: 1020 hPa
Clouds: Few Clouds
Visibility: 6 miles , 10 km
Cloud details: Few Clouds 610 m
2018/11/14 15:50 EGVP 141550Z 17008KT 9999 FEW020 12/09 Q1020 BLU BECMG SCT010 GRN
 
EGDM - Boscombe Down, Dorset, United Kingdom
Distance from station: NW 21mi, 34km
Updated: 14/11/2018 15:50
Few Clouds
Few Clouds
 Wind from S
Wind: S 10 mph , 17 km/h
Temperature: 11°C
Dew Point: 9°C
Humidity: 88%
Barometer: 1020 hPa
Clouds: Few Clouds
Visibility: 6 miles , 10 km
Cloud details: Few Clouds 457 m
2018/11/14 15:50 EGDM 141550Z 18009KT 9999 FEW015 11/09 Q1020 BLU BECMG SCT014 GRN
EGHH - Bournemouth Airp, Dorset, United Kingdom
Distance from station: WSW 23mi, 38km
Updated: 14/11/2018 15:50
Partly cloudy
Partly cloudy
 Wind from S
Wind: S 7 mph , 11 km/h
Temperature: 12°C
Dew Point: 10°C
Humidity: 88%
Barometer: 1020 hPa
Clouds: Partly cloudy
Visibility: 6 miles , 10 km
Cloud details: Partly cloudy 396 m
2018/11/14 15:50 EGHH 141550Z 19006KT 9999 SCT013 12/10 Q1020
 
EGVO - Odiham Raf, Hampshire, United Kingdom
Distance from station: NE 26mi, 42km
Updated: 14/11/2018 15:50
Clear
Clear
 Wind from SSE
Wind: SSE 7 mph , 11 km/h
Temperature: 12°C
Dew Point: 9°C
Humidity: 82%
Barometer: 1020 hPa
Summary: Clear
Visibility: greater than 7 miles , 10 km
2018/11/14 15:50 EGVO 141550Z 16006KT CAVOK 12/09 Q1020 BLU NOSIG
EGLF - Farnborough, Hampshire, United Kingdom
Distance from station: NE 34mi, 56km
Updated: 14/11/2018 15:50
Clear
Clear
 Wind from SSE
Wind: SSE 6 mph , 9 km/h
Temperature: 12°C
Dew Point: 8°C
Humidity: 77%
Barometer: 1021 hPa
Summary: Clear
Visibility: greater than 7 miles , 10 km
2018/11/14 15:50 EGLF 141550Z 16005KT 120V180 CAVOK 12/08 Q1021
 
EGDL - Lyneham Raf, Wiltshire, United Kingdom
Distance from station: NW 45mi, 72km
Updated: 21/06/2013 08:50
NOT Current
Mostly cloudy
Mostly cloudy
 Wind from WSW
Wind: WSW 9 mph , 15 km/h
Temperature: 14°C
Dew Point: 14°C
Humidity: 100%
Barometer: 1010 hPa
Clouds: Mostly cloudy
Cloud details: Mostly cloudy 61 m
Mostly cloudy 427 m
2013/06/21 07:50 EGDL 210750Z AUTO 25008KT //// // BKN002/// BKN014/// 14/14 Q1010
EGUB - Benson Raf, Oxfordshire, United Kingdom
Distance from station: NNE 47mi, 76km
Updated: 14/11/2018 15:50
Mostly cloudy
Mostly cloudy
 Wind from SSE
Wind: SSE 9 mph , 15 km/h
Temperature: 12°C
Dew Point: 8°C
Humidity: 77%
Barometer: 1020 hPa
Clouds: Mostly cloudy
Visibility: 6 miles , 10 km
Cloud details: Few Clouds 914 m
Mostly cloudy 7620 m
2018/11/14 15:50 EGUB 141550Z 16008KT 9999 FEW030 BKN250 12/08 Q1020 BLU NOSIG
 
EGKA - Shoreham-By-Sea, West Sussex, United Kingdom
Distance from station: E 48mi, 77km
Updated: 14/11/2018 15:50
Clear
Clear
 Wind from SE
Wind: SE 6 mph , 9 km/h
Temperature: 13°C
Dew Point: 10°C
Humidity: 82%
Barometer: 1021 hPa
Summary: Clear
Visibility: greater than 7 miles , 10 km
2018/11/14 15:50 EGKA 141550Z 13005KT CAVOK 13/10 Q1021
EGVA - Fairford Raf, Gloucestershire, United Kingdom
Distance from station: NNW 51mi, 82km
Updated: 14/11/2018 15:56
Partly cloudy
Partly cloudy
 Wind from S
Wind: S 9 mph , 15 km/h
Temperature: 12°C
Dew Point: 8°C
Humidity: 77%
Barometer: 1019.3 hPa
Clouds: Partly cloudy
Visibility: 6 miles , 10 km
Cloud details: Partly cloudy 1067 m
2018/11/14 15:56 EGVA 141556Z AUTO 19008KT 9999 SCT035 12/08 A3010 RMK AO2 SLP197 T01240077 $
 
EGDY - Yeovilton (navy), Somerset, United Kingdom
Distance from station: W 54mi, 87km
Updated: 14/11/2018 15:50
Partly cloudy
Partly cloudy
 Wind from S
Wind: S 9 mph , 15 km/h
Temperature: 12°C
Dew Point: 9°C
Humidity: 82%
Barometer: 1019 hPa
Clouds: Partly cloudy
Visibility: 6 miles , 10 km
Cloud details: Few Clouds 549 m
Partly cloudy 610 m
2018/11/14 15:50 EGDY 141550Z 17008KT 9999 FEW018 SCT020 12/09 Q1019 WHT TEMPO FEW020 BLU
EGKK - London/Gatwick A, West Sussex, United Kingdom
Distance from station: ENE 54mi, 87km
Updated: 14/11/2018 15:50
Clear
Clear
 Wind from SSE
Wind: SSE 5 mph , 7 km/h
Temperature: 13°C
Dew Point: 8°C
Humidity: 72%
Barometer: 1021 hPa
Summary: Clear
Visibility: greater than 7 miles , 10 km
2018/11/14 15:50 EGKK 141550Z 16004KT CAVOK 13/08 Q1021
 
EGLL - London/Heathrow, Middlesex, United Kingdom
Distance from station: NE 54mi, 87km
Updated: 14/11/2018 15:50
Clear
Clear
 Wind from S
Wind: S 8 mph , 13 km/h
Temperature: 13°C
Dew Point: 8°C
Humidity: 72%
Barometer: 1021 hPa
Clouds: Clear
Visibility: 6 miles , 10 km
2018/11/14 15:50 EGLL 141550Z AUTO 17007KT 130V230 9999 NCD 13/08 Q1021 NOSIG
EGVN - Brize Norton Raf, Oxfordshire, United Kingdom
Distance from station: N 56mi, 90km
Updated: 14/11/2018 15:50
Clear
Clear
 Wind from SSW
Wind: SSW 7 mph , 11 km/h
Temperature: 13°C
Dew Point: 7°C
Humidity: 67%
Barometer: 1019 hPa
Summary: Clear
Visibility: greater than 7 miles , 10 km
2018/11/14 15:50 EGVN 141550Z 20006KT CAVOK 13/07 Q1019 NOSIG
 
EGWU - Northolt Raf, Middlesex, United Kingdom
Distance from station: NE 58mi, 93km
Updated: 14/11/2018 15:50
Clear
Clear
 Wind from S
Wind: S 7 mph , 11 km/h
Temperature: 13°C
Dew Point: 8°C
Humidity: 72%
Barometer: 1021 hPa
Summary: Clear
Visibility: greater than 7 miles , 10 km
2018/11/14 15:50 EGWU 141550Z 18006KT CAVOK 13/08 Q1021 BLU NOSIG
EGGD - Bristol/Lulsgate, Somerset, United Kingdom
Distance from station: WNW 64mi, 103km
Updated: 14/11/2018 15:50
Partly cloudy
Partly cloudy
 Wind from S
Wind: S 9 mph , 15 km/h
Temperature: 12°C
Dew Point: 9°C
Humidity: 82%
Barometer: 1019 hPa
Clouds: Partly cloudy
Visibility: 6 miles , 10 km
Cloud details: Partly cloudy 488 m
2018/11/14 15:50 EGGD 141550Z 18008KT 150V210 9999 SCT016 12/09 Q1019
 
EGKB - Biggin Hill, Kent,United Kingdom
Distance from station: ENE 65mi, 105km
Updated: 14/11/2018 15:50
Clear
Clear
 Wind from SSE
Wind: SSE 8 mph , 13 km/h
Temperature: 12°C
Dew Point: 7°C
Humidity: 72%
Barometer: 1021 hPa
Summary: Clear
Visibility: greater than 7 miles , 10 km
2018/11/14 15:50 EGKB 141550Z 15007KT CAVOK 12/07 Q1021
EGLC - London City Airp, Greater London, United Kingdom
Distance from station: ENE 72mi, 116km
Updated: 14/11/2018 15:50
Clear
Clear
 Wind from SE
Wind: SE 6 mph , 9 km/h
Temperature: 14°C
Dew Point: 8°C
Humidity: 67%
Barometer: 1021 hPa
Clouds: Clear
Visibility: 6 miles , 10 km
2018/11/14 15:50 EGLC 141550Z AUTO 14005KT 070V210 9999 NCD 14/08 Q1021
 
EGBJ - Staverton, Northamptonshire, United Kingdom
Distance from station: NNW 73mi, 117km
Updated: 14/11/2018 15:50
Few Clouds
Few Clouds
 Wind from S
Wind: S 5 mph , 7 km/h
Temperature: 13°C
Dew Point: 8°C
Humidity: 72%
Barometer: 1019 hPa
Clouds: Few Clouds
Visibility: 6 miles , 10 km
Cloud details: Few Clouds 914 m
2018/11/14 15:50 EGBJ 141550Z 18004KT 150V230 9999 FEW030 13/08 Q1019
EGGW - Luton Airport, Bedfordshire, United Kingdom
Distance from station: NE 76mi, 122km
Updated: 14/11/2018 15:50
Clear
Clear
 Wind from SSE
Wind: SSE 7 mph , 11 km/h
Temperature: 12°C
Dew Point: 7°C
Humidity: 72%
Barometer: 1020 hPa
Clouds: Clear
Visibility: 6 miles , 10 km
2018/11/14 15:50 EGGW 141550Z AUTO 16006KT 9999 NCD 12/07 Q1020